首页
METAR-TAF:

METAR-TAF

机场 :

Eau Claire, 威斯康辛州, 美国

纬度: 44-51-55N, 经度: 091-29-06W, 海拔: 277米

当前天气观测

该预报发布于1小时和7分钟前的05:56 UTC
风速7节,风向南转南东
温度 2°C
湿度 69%
气压 1017 hPa
能見度: 9.7公里
多云层高于12000英尺

METAR: KEAU 170556Z AUTO 16007KT 6SM HZ BKN120 02/M03 A3003 RMK AO2 SLP176 T00221033 10044 20022 400671022 58013

时间: 01:03 (07:03 UTC)

预报

该预报发布于1小时和27分钟前的05:36 UTC
预报有效从17日的 06点(UTC)到 18日的 06点(UTC)
风速7节,风向
能見度: 10公里
阴天层高于12000英尺
从 17日的 1000点(UTC)
风速6节,风向
能見度: 10公里
阴天层高于3500英尺
附近有阵雨
从 17日的 1100点(UTC)
风速6节,风向
能見度: 2.4公里
层高于700英尺
小雪, 轻雾
从 17日的 1600点(UTC)
风速6节,风向西转西南
能見度: 10公里
阴天层高于800英尺
从 17日的 1800点(UTC)
风速8节,风向西
能見度: 10公里
阴天层高于1500英尺
从 18日的 0300点(UTC)
风速3节,风向多变
能見度: 10公里
散云层高于2200英尺

TAF: KEAU 170536Z 1706/1806 17007KT P6SM OVC120 FM171000 17006KT P6SM VCSH OVC035 FM171100 18006KT 1 1/2SM -SN BR VV007 FM171600 24006KT P6SM OVC008 FM171800 27008KT P6SM OVC015 FM180300 VRB03KT P6SM SCT022

超过4000个机场的气象观测和天气预报(METAR&TAF报告)。

可查询的气象台以黄色和红色小点在地图上表示。

将鼠标移到小点上方,可查看气象台名称。

然后点击查看天气观测和预报。

如需切换地图:点击带黑十字的绿色按钮放大地图;点击带横线的绿色按钮缩小地图;或者点击绿色箭头查看邻近地区的地图。


METAR-TAF: